Time;durP1;ratioP1;P1;durP2;ratioP2;P2;SDS_P1;SDS_P2;PMS_P1;PMS_P2;Temp;Humidity;BMP_temperature;BMP_pressure;BME280_temperature;BME280_humidity;BME280_pressure;Samples;Min_cycle;Max_cycle;Signal;HPM_P1;HPM_P2
2022/02/25 00:01:15;;;;;;;20.87;18.93;;;;;;;2.59;100.00;98495.88;5032459;28;20040;-59
2022/02/25 00:03:41;;;;;;;17.10;15.50;;;;;;;2.56;100.00;98498.41;5033269;28;20396;-58
2022/02/25 00:06:06;;;;;;;19.13;17.40;;;;;;;2.57;100.00;98495.03;5033193;28;20048;-60
2022/02/25 00:08:33;;;;;;;21.53;19.53;;;;;;;2.70;100.00;98504.47;5030722;28;20037;-58
2022/02/25 00:10:59;;;;;;;23.93;21.77;;;;;;;2.73;100.00;98501.94;5031280;28;20094;-59
2022/02/25 00:13:24;;;;;;;24.23;22.03;;;;;;;2.68;100.00;98501.03;5034136;28;20041;-60
2022/02/25 00:15:50;;;;;;;21.27;19.00;;;;;;;2.71;100.00;98503.63;5034397;28;20044;-59
2022/02/25 00:18:15;;;;;;;20.57;18.47;;;;;;;2.71;100.00;98497.72;5032797;28;20126;-59
2022/02/25 00:20:40;;;;;;;16.90;13.00;;;;;;;2.67;100.00;98496.81;5034832;28;20041;-62
2022/02/25 00:23:06;;;;;;;16.17;11.63;;;;;;;2.60;100.00;98490.00;5040254;28;20064;-58
2022/02/25 00:25:31;;;;;;;21.37;14.37;;;;;;;2.56;100.00;98493.34;5036305;28;20074;-58
2022/02/25 00:27:57;;;;;;;21.20;17.70;;;;;;;2.52;100.00;98486.53;5036590;28;20038;-58
2022/02/25 00:30:22;;;;;;;16.53;10.03;;;;;;;2.47;100.00;98480.59;5036059;28;20044;-58
2022/02/25 00:32:47;;;;;;;14.83;12.63;;;;;;;2.42;100.00;98483.91;5039137;28;20380;-60
2022/02/25 00:35:13;;;;;;;16.43;11.10;;;;;;;2.34;100.00;98488.00;5036410;28;20589;-62
2022/02/25 00:37:38;;;;;;;18.13;9.33;;;;;;;2.29;100.00;98485.47;5037151;28;20550;-59
2022/02/25 00:40:05;;;;;;;17.90;8.43;;;;;;;2.17;100.00;98487.81;5038095;28;20629;-58
2022/02/25 00:42:30;;;;;;;17.33;9.43;;;;;;;2.11;100.00;98490.31;5037545;28;20650;-58
2022/02/25 00:44:56;;;;;;;16.87;8.73;;;;;;;2.06;100.00;98490.25;5035267;28;20041;-59
2022/02/25 00:47:21;;;;;;;18.07;8.60;;;;;;;2.00;100.00;98489.31;5034723;28;20037;-59
2022/02/25 00:49:47;;;;;;;19.47;10.87;;;;;;;1.93;100.00;98479.94;5039154;28;20026;-58
2022/02/25 00:52:12;;;;;;;19.50;10.60;;;;;;;1.91;100.00;98477.41;5036913;28;20045;-58
2022/02/25 00:54:39;;;;;;;16.13;11.77;;;;;;;1.95;100.00;98481.69;5037872;28;20040;-58
2022/02/25 00:57:05;;;;;;;14.33;8.67;;;;;;;2.15;100.00;98487.84;5037100;28;20047;-57
2022/02/25 00:59:30;;;;;;;14.30;8.00;;;;;;;2.28;100.00;98497.25;5038564;28;20537;-59
2022/02/25 01:01:56;;;;;;;13.73;6.57;;;;;;;2.27;100.00;98508.19;5035813;28;20453;-59
2022/02/25 01:04:21;;;;;;;12.30;7.57;;;;;;;2.41;100.00;98490.66;5033328;28;20028;-59
2022/02/25 01:06:48;;;;;;;11.77;7.57;;;;;;;2.29;100.00;98503.16;5033919;28;20037;-57
2022/02/25 01:09:14;;;;;;;12.77;7.37;;;;;;;2.23;100.00;98510.69;5038676;28;20064;-59
2022/02/25 01:11:39;;;;;;;15.53;7.50;;;;;;;2.21;100.00;98505.59;5035081;28;20051;-58
2022/02/25 01:14:05;;;;;;;11.03;7.67;;;;;;;2.16;100.00;98499.66;5033335;28;20048;-58
2022/02/25 01:16:30;;;;;;;10.97;6.77;;;;;;;2.09;100.00;98509.66;5034865;28;20045;-59
2022/02/25 01:18:56;;;;;;;13.53;7.00;;;;;;;2.00;100.00;98510.38;5036212;28;20069;-58
2022/02/25 01:21:21;;;;;;;14.57;8.67;;;;;;;1.99;100.00;98507.84;5034575;28;20427;-59
2022/02/25 01:23:47;;;;;;;14.20;9.30;;;;;;;1.96;100.00;98507.78;5033812;28;20100;-57
2022/02/25 01:26:12;;;;;;;10.93;7.13;;;;;;;1.88;100.00;98509.38;5035711;28;20037;-60
2022/02/25 01:28:38;;;;;;;10.43;8.40;;;;;;;1.84;100.00;98509.34;5036164;28;20505;-56
2022/02/25 01:31:03;;;;;;;16.20;8.53;;;;;;;1.72;100.00;98499.06;5035939;28;20033;-58
2022/02/25 01:33:29;;;;;;;12.70;8.07;;;;;;;1.69;100.00;98499.03;5033321;28;20682;-58
2022/02/25 01:35:55;;;;;;;10.53;6.47;;;;;;;1.79;100.00;98494.94;5032797;28;20044;-57
2022/02/25 01:38:20;;;;;;;13.23;6.93;;;;;;;1.74;100.00;98492.34;5036071;28;20040;-58
2022/02/25 01:40:46;;;;;;;10.13;5.10;;;;;;;2.00;100.00;98494.34;5036935;28;20045;-58
2022/02/25 01:43:11;;;;;;;9.57;5.67;;;;;;;2.00;100.00;98492.69;5032833;28;20033;-58
2022/02/25 01:45:37;;;;;;;10.23;5.73;;;;;;;2.38;100.00;98479.66;5033222;28;20118;-57
2022/02/25 01:48:04;;;;;;;9.00;5.20;;;;;;;2.30;100.00;98494.72;5034265;28;20466;-60
2022/02/25 01:50:30;;;;;;;33.07;30.83;;;;;;;3.10;100.00;98490.47;5033253;28;20053;-58
2022/02/25 01:53:01;;;;;;;53.53;49.53;;;;;;;4.09;100.00;98493.63;5034362;28;20521;-58
2022/02/25 01:55:29;;;;;;;36.63;34.23;;;;;;;4.55;100.00;98492.94;5036460;28;20037;-59
2022/02/25 01:57:54;;;;;;;19.83;18.30;;;;;;;4.73;100.00;98499.75;5036223;28;20068;-58
2022/02/25 02:00:20;;;;;;;11.97;10.03;;;;;;;5.34;100.00;98498.13;5034946;28;20140;-58
2022/02/25 02:02:45;;;;;;;7.40;5.13;;;;;;;5.49;100.00;98487.06;5032388;28;20482;-57
2022/02/25 02:05:11;;;;;;;2.83;1.97;;;;;;;5.41;100.00;98498.94;5037093;28;20053;-59
2022/02/25 02:07:36;;;;;;;8.83;2.83;;;;;;;5.60;100.00;98492.97;5034676;28;20471;-59
2022/02/25 02:10:02;;;;;;;3.83;1.93;;;;;;;5.63;100.00;98493.00;5035002;28;20041;-58
2022/02/25 02:12:28;;;;;;;3.20;1.77;;;;;;;5.94;100.00;98493.81;5034976;28;20041;-59
2022/02/25 02:14:53;;;;;;;4.87;2.13;;;;;;;6.69;100.00;98496.88;5034044;28;20037;-58
2022/02/25 02:17:21;;;;;;;3.33;1.70;;;;;;;7.34;100.00;98498.97;5034898;28;20045;-59
2022/02/25 02:19:46;;;;;;;3.87;1.57;;;;;;;7.54;97.05;98489.44;5033545;28;20045;-60
2022/02/25 02:22:13;;;;;;;3.53;2.00;;;;;;;7.44;97.48;98481.84;5033342;28;20087;-59
2022/02/25 02:24:39;;;;;;;4.40;1.67;;;;;;;7.85;91.89;98489.13;5035319;28;20069;-58
2022/02/25 02:27:04;;;;;;;2.97;1.53;;;;;;;8.20;90.42;98479.34;5035423;28;20069;-59
2022/02/25 02:29:30;;;;;;;6.67;1.80;;;;;;;8.39;88.17;98480.00;5033277;28;20882;-58
2022/02/25 02:31:55;;;;;;;5.40;2.27;;;;;;;8.82;83.24;98473.47;5030741;28;20945;-61
2022/02/25 02:34:20;;;;;;;7.60;1.87;;;;;;;8.86;81.46;98480.22;5035591;28;20036;-58
2022/02/25 02:36:47;;;;;;;6.67;1.50;;;;;;;8.92;80.37;98452.00;5033602;28;20132;-58
2022/02/25 02:39:13;;;;;;;3.00;1.47;;;;;;;9.04;79.49;98467.13;5031899;28;20037;-59
2022/02/25 02:41:39;;;;;;;3.67;1.33;;;;;;;8.99;79.50;98461.28;5031861;28;20044;-59
2022/02/25 02:44:05;;;;;;;3.90;1.37;;;;;;;9.12;78.21;98459.38;5034520;28;20045;-58
2022/02/25 02:46:31;;;;;;;3.10;1.53;;;;;;;9.09;78.20;98454.28;5030460;28;20490;-57
2022/02/25 02:48:57;;;;;;;7.37;1.50;;;;;;;9.40;74.54;98446.94;5033355;28;20089;-59
2022/02/25 02:51:22;;;;;;;3.97;1.57;;;;;;;9.33;75.10;98448.78;5030988;28;21023;-58
2022/02/25 02:53:47;;;;;;;4.33;1.70;;;;;;;9.33;75.50;98445.38;5034642;28;20411;-58
2022/02/25 02:56:13;;;;;;;4.07;1.30;;;;;;;9.34;74.94;98449.59;5031091;28;20037;-57
2022/02/25 02:58:39;;;;;;;1.87;1.33;;;;;;;9.33;75.18;98445.38;5032087;28;20052;-58
2022/02/25 03:01:05;;;;;;;2.50;1.53;;;;;;;9.42;74.60;98443.47;5032676;28;20073;-59
2022/02/25 03:03:31;;;;;;;1.30;1.07;;;;;;;9.40;74.68;98463.16;5031967;28;20600;-58
2022/02/25 03:05:56;;;;;;;4.30;1.23;;;;;;;9.38;75.81;98462.31;5033149;28;20037;-58
2022/02/25 03:08:21;;;;;;;4.77;1.40;;;;;;;9.24;76.18;98463.44;5031979;28;20040;-60
2022/02/25 03:10:47;;;;;;;6.60;1.47;;;;;;;9.25;77.64;98476.19;5032901;28;20068;-60
2022/02/25 03:13:15;;;;;;;1.80;1.33;;;;;;;9.26;77.68;98479.59;5032177;28;20049;-60
2022/02/25 03:15:43;;;;;;;6.00;1.43;;;;;;;9.24;77.78;98477.06;5034467;28;20040;-59
2022/02/25 03:18:08;;;;;;;2.17;1.33;;;;;;;9.08;79.03;98473.06;5038917;28;20159;-59
2022/02/25 03:20:34;;;;;;;1.63;1.30;;;;;;;8.93;80.33;98481.81;5031673;28;20033;-59
2022/02/25 03:23:00;;;;;;;2.37;1.20;;;;;;;8.87;81.11;98483.63;5031789;28;20041;-59
2022/02/25 03:25:26;;;;;;;2.50;1.40;;;;;;;8.80;83.02;98485.41;5029590;28;20041;-57
2022/02/25 03:27:51;;;;;;;2.10;1.33;;;;;;;8.71;83.48;98480.41;5031176;28;20041;-59
2022/02/25 03:30:17;;;;;;;4.40;1.73;;;;;;;8.62;84.78;98488.22;5034617;28;20041;-59
2022/02/25 03:32:42;;;;;;;8.03;1.87;;;;;;;8.65;84.83;98490.75;5033831;28;20519;-59
2022/02/25 03:35:09;;;;;;;6.07;2.57;;;;;;;8.85;83.52;98488.75;5030523;28;20091;-60
2022/02/25 03:37:35;;;;;;;3.77;1.57;;;;;;;8.94;82.21;98501.41;5032321;28;20060;-58
2022/02/25 03:40:01;;;;;;;3.10;1.63;;;;;;;8.82;83.33;98513.50;5031282;28;20056;-57
2022/02/25 03:42:27;;;;;;;4.90;1.97;;;;;;;8.90;83.13;98509.13;5031847;28;20034;-59
2022/02/25 03:44:52;;;;;;;5.13;1.20;;;;;;;8.91;82.61;98513.38;5028847;28;20041;-59
2022/02/25 03:47:18;;;;;;;1.60;1.47;;;;;;;8.87;83.26;98517.66;5029015;28;20049;-59
2022/02/25 03:49:43;;;;;;;7.00;1.97;;;;;;;8.70;85.26;98530.69;5030432;28;20048;-57
2022/02/25 03:52:09;;;;;;;2.23;1.60;;;;;;;8.86;84.09;98544.13;5033534;28;20042;-59
2022/02/25 03:54:35;;;;;;;6.53;1.57;;;;;;;8.83;84.09;98541.59;5029662;28;20059;-60
2022/02/25 03:57:00;;;;;;;4.07;2.07;;;;;;;8.80;84.39;98541.63;5031764;28;20045;-59
2022/02/25 03:59:26;;;;;;;4.93;1.60;;;;;;;8.69;85.33;98543.50;5034972;28;20402;-56
2022/02/25 04:01:52;;;;;;;2.30;1.33;;;;;;;8.84;85.40;98575.66;5031304;28;20045;-57
2022/02/25 04:04:19;;;;;;;3.10;1.60;;;;;;;8.93;85.25;98566.16;5032323;28;20045;-59
2022/02/25 04:06:44;;;;;;;1.80;1.47;;;;;;;8.95;85.86;98569.56;5030915;28;20037;-58
2022/02/25 04:09:11;;;;;;;3.17;1.67;;;;;;;9.02;85.93;98578.00;5034416;28;20037;-59
2022/02/25 04:11:37;;;;;;;5.87;2.63;;;;;;;9.00;86.91;98583.13;5032772;28;20056;-59
2022/02/25 04:14:02;;;;;;;3.80;1.93;;;;;;;9.02;86.48;98606.13;5029540;28;20038;-56
2022/02/25 04:16:28;;;;;;;2.40;2.10;;;;;;;8.86;88.79;98595.25;5029953;28;20142;-59
2022/02/25 04:18:53;;;;;;;5.70;1.93;;;;;;;8.65;92.93;98604.03;5032863;28;20048;-59
2022/02/25 04:21:18;;;;;;;10.20;2.80;;;;;;;8.40;94.93;98614.53;5032185;28;20049;-57
2022/02/25 04:23:44;;;;;;;4.73;1.77;;;;;;;8.24;98.05;98626.56;5028359;28;20110;-59
2022/02/25 04:26:09;;;;;;;23.27;21.27;;;;;;;8.15;97.93;98645.38;5030665;28;20042;-58
2022/02/25 04:28:34;;;;;;;2.97;1.97;;;;;;;8.09;97.82;98635.25;5033958;28;20045;-55
2022/02/25 04:31:00;;;;;;;2.87;1.97;;;;;;;7.94;100.00;98655.78;5033271;28;20044;-57
2022/02/25 04:33:25;;;;;;;2.77;1.93;;;;;;;7.65;100.00;98671.31;5029403;28;20502;-55
2022/02/25 04:35:51;;;;;;;1.80;1.27;;;;;;;7.55;100.00;98684.16;5030367;28;20041;-55
2022/02/25 04:38:16;;;;;;;3.87;1.73;;;;;;;7.36;100.00;98678.28;5031329;28;20398;-57
2022/02/25 04:40:42;;;;;;;1.13;1.00;;;;;;;7.18;100.00;98686.88;5031582;28;20033;-58
2022/02/25 04:43:07;;;;;;;2.47;1.67;;;;;;;6.99;100.00;98708.22;5031754;28;20099;-56
2022/02/25 04:45:33;;;;;;;3.13;1.77;;;;;;;6.75;100.00;98698.06;5032629;28;20056;-59
2022/02/25 04:47:58;;;;;;;1.33;1.10;;;;;;;6.45;100.00;98704.09;5034037;28;20451;-57
2022/02/25 04:50:24;;;;;;;1.47;1.37;;;;;;;6.17;100.00;98708.38;5032235;28;20037;-58
2022/02/25 04:52:50;;;;;;;1.33;1.03;;;;;;;5.89;100.00;98737.22;5028713;28;20045;-58
2022/02/25 04:55:16;;;;;;;1.83;1.37;;;;;;;5.69;100.00;98742.22;5029817;28;20053;-58
2022/02/25 04:57:42;;;;;;;1.27;1.17;;;;;;;5.53;100.00;98748.09;5032847;28;20056;-60
2022/02/25 05:00:10;;;;;;;0.90;0.90;;;;;;;5.37;100.00;98764.16;5030990;28;20038;-59
2022/02/25 05:02:44;;;;;;;1.73;1.20;;;;;;;5.30;100.00;98765.84;5038045;28;20052;-59
2022/02/25 05:05:10;;;;;;;1.10;1.00;;;;;;;5.20;100.00;98769.19;5034970;28;20494;-59
2022/02/25 05:07:35;;;;;;;1.03;0.90;;;;;;;5.02;100.00;98764.84;5034324;28;20052;-58
2022/02/25 05:10:03;;;;;;;1.70;0.90;;;;;;;4.87;100.00;98767.31;5032285;28;20037;-59
2022/02/25 05:12:28;;;;;;;1.50;1.30;;;;;;;4.96;100.00;98789.38;5033959;28;20667;-57
2022/02/25 05:20:25;;;;;;;1.03;1.00;;;;;;;4.96;100.00;98775.00;5034909;28;20052;-57
2022/02/25 05:22:53;;;;;;;1.10;1.00;;;;;;;5.03;100.00;98799.59;5036093;28;20092;-57
2022/02/25 05:25:19;;;;;;;1.17;1.07;;;;;;;4.96;100.00;98815.66;5034803;28;20156;-59
2022/02/25 05:27:45;;;;;;;1.13;1.07;;;;;;;4.83;100.00;98808.78;5032976;28;20103;-60
2022/02/25 05:30:11;;;;;;;1.33;1.20;;;;;;;4.73;100.00;98821.41;5034087;28;20042;-60
2022/02/25 05:32:36;;;;;;;1.23;1.13;;;;;;;4.70;100.00;98827.31;5036053;28;20037;-59
2022/02/25 05:35:02;;;;;;;1.40;1.30;;;;;;;4.77;100.00;98816.34;5036161;28;20048;-58
2022/02/25 05:37:28;;;;;;;1.87;1.60;;;;;;;4.75;100.00;98824.81;5032665;28;20670;-58
2022/02/25 05:39:53;;;;;;;1.10;1.00;;;;;;;4.79;100.00;98829.94;5033807;28;20084;-59
2022/02/25 05:42:19;;;;;;;2.17;1.87;;;;;;;4.78;100.00;98830.75;5035069;28;20305;-59
2022/02/25 05:44:44;;;;;;;1.83;1.70;;;;;;;4.88;100.00;98836.75;5035821;28;20033;-59
2022/02/25 05:47:10;;;;;;;1.23;1.13;;;;;;;4.86;100.00;98851.13;5035060;28;20552;-60
2022/02/25 05:49:35;;;;;;;1.20;1.10;;;;;;;4.71;100.00;98856.09;5032901;28;20050;-59
2022/02/25 05:52:00;;;;;;;1.77;1.43;;;;;;;4.77;100.00;98856.97;5034520;28;20483;-59
2022/02/25 05:54:26;;;;;;;1.20;1.07;;;;;;;4.84;100.00;98855.31;5031446;28;20045;-59
2022/02/25 05:56:51;;;;;;;2.13;1.93;;;;;;;4.67;100.00;98872.97;5033665;28;20049;-58
2022/02/25 05:59:17;;;;;;;1.23;1.13;;;;;;;4.40;100.00;98877.81;5032813;28;20542;-59
2022/02/25 06:01:42;;;;;;;3.63;3.33;;;;;;;4.32;100.00;98879.44;5031428;28;20036;-59
2022/02/25 06:04:08;;;;;;;8.10;7.47;;;;;;;4.26;100.00;98892.06;5032866;28;20045;-59
2022/02/25 06:06:34;;;;;;;10.33;9.80;;;;;;;4.17;100.00;98895.34;5035894;28;20037;-59
2022/02/25 06:09:00;;;;;;;94.77;88.10;;;;;;;4.07;100.00;98891.03;5034745;28;20045;-60
2022/02/25 06:11:25;;;;;;;180.90;160.23;;;;;;;4.23;100.00;98908.13;5032205;28;20402;-60
2022/02/25 06:13:51;;;;;;;196.70;158.80;;;;;;;4.30;100.00;98907.34;5033927;28;20465;-60
2022/02/25 06:16:16;;;;;;;163.47;144.87;;;;;;;4.44;100.00;98910.00;5034008;28;20049;-58
2022/02/25 06:18:42;;;;;;;171.43;147.50;;;;;;;4.53;100.00;98907.56;5032984;28;20053;-59
2022/02/25 06:21:08;;;;;;;158.33;142.30;;;;;;;4.63;96.47;98913.56;5033198;28;20407;-60
2022/02/25 06:23:34;;;;;;;160.60;144.23;;;;;;;4.66;94.23;98909.38;5033404;28;20045;-59
2022/02/25 06:26:00;;;;;;;151.97;137.33;;;;;;;4.65;93.41;98924.59;5032916;28;20040;-59
2022/02/25 06:28:25;;;;;;;106.30;97.90;;;;;;;4.68;90.96;98948.31;5032170;28;20045;-59
2022/02/25 06:30:50;;;;;;;113.93;104.83;;;;;;;4.73;89.77;98933.97;5033818;28;20163;-59
2022/02/25 06:33:16;;;;;;;103.30;95.57;;;;;;;4.76;89.05;98948.38;5034503;28;20140;-58
2022/02/25 06:35:41;;;;;;;96.83;89.80;;;;;;;4.75;89.98;98944.16;5032328;28;20494;-59
2022/02/25 06:38:07;;;;;;;121.90;112.27;;;;;;;4.69;90.00;98927.19;5030831;28;20045;-58
2022/02/25 06:40:32;;;;;;;98.03;90.90;;;;;;;4.71;91.68;98938.19;5034836;28;20056;-59
2022/02/25 06:42:57;;;;;;;109.93;101.37;;;;;;;4.80;91.87;98963.66;5033413;28;20045;-57
2022/02/25 06:45:23;;;;;;;124.30;114.67;;;;;;;4.75;92.39;98965.34;5031254;28;20045;-56
2022/02/25 06:47:48;;;;;;;109.73;101.23;;;;;;;4.88;92.82;98979.81;5033543;28;20037;-58
2022/02/25 06:50:16;;;;;;;117.33;107.97;;;;;;;4.82;93.24;99001.78;5034092;28;20482;-59
2022/02/25 06:52:42;;;;;;;113.53;104.83;;;;;;;4.86;93.80;98980.66;5033025;28;20071;-59
2022/02/25 06:55:08;;;;;;;86.33;80.40;;;;;;;4.88;94.33;99004.41;5031035;28;20037;-58
2022/02/25 06:57:34;;;;;;;86.80;80.77;;;;;;;4.87;94.62;99000.16;5032206;28;20040;-58
2022/02/25 06:59:59;;;;;;;80.73;75.53;;;;;;;4.72;95.87;99022.84;5036082;28;20698;-58
2022/02/25 07:02:24;;;;;;;83.83;78.50;;;;;;;4.73;98.15;99011.84;5033444;28;20522;-59
2022/02/25 07:04:50;;;;;;;88.77;82.63;;;;;;;4.84;96.52;99031.44;5031639;28;20066;-59
2022/02/25 07:07:15;;;;;;;80.07;74.63;;;;;;;4.95;95.91;99027.34;5033261;28;20437;-59
2022/02/25 07:09:41;;;;;;;47.63;45.10;;;;;;;5.05;95.53;99030.78;5036457;28;20781;-58
2022/02/25 07:12:07;;;;;;;51.60;48.60;;;;;;;5.00;94.01;99062.94;5032524;28;20046;-58
2022/02/25 07:14:35;;;;;;;41.13;39.03;;;;;;;4.98;94.63;99046.81;5030258;28;20049;-57
2022/02/25 07:17:01;;;;;;;30.20;28.73;;;;;;;4.91;95.33;99040.00;5033163;28;20128;-58
2022/02/25 07:19:26;;;;;;;64.43;60.80;;;;;;;4.91;94.71;99043.38;5032800;28;20043;-56
2022/02/25 07:21:52;;;;;;;50.43;47.83;;;;;;;4.92;94.35;99080.63;5030524;28;20040;-58
2022/02/25 07:24:17;;;;;;;49.30;46.53;;;;;;;5.02;92.93;99043.47;5031576;28;20822;-57
2022/02/25 07:26:43;;;;;;;30.03;28.60;;;;;;;5.02;91.38;99058.72;5034029;28;20614;-59
2022/02/25 07:29:10;;;;;;;25.43;24.20;;;;;;;5.11;91.21;99043.56;5034020;28;21011;-57
2022/02/25 07:31:40;;;;;;;25.10;24.07;;;;;;;5.23;88.03;99045.34;5032133;28;20048;-58
2022/02/25 07:34:06;;;;;;;11.90;11.37;;;;;;;5.32;85.32;99064.09;5033010;28;20056;-58
2022/02/25 07:36:32;;;;;;;15.00;14.37;;;;;;;5.43;82.95;99062.47;5032985;28;20090;-58
2022/02/25 07:38:58;;;;;;;9.50;9.00;;;;;;;5.53;82.77;99074.44;5032789;28;20052;-55
2022/02/25 07:41:23;;;;;;;12.27;11.43;;;;;;;5.62;82.16;99081.28;5031353;28;20036;-57
2022/02/25 07:43:49;;;;;;;14.13;13.50;;;;;;;5.67;79.12;99084.72;5031251;28;20048;-56
2022/02/25 07:46:15;;;;;;;15.57;14.93;;;;;;;5.75;78.18;99067.81;5032607;28;20519;-59
2022/02/25 07:48:40;;;;;;;7.60;7.23;;;;;;;5.86;78.21;99058.59;5031808;28;20383;-60
2022/02/25 07:51:07;;;;;;;7.17;6.67;;;;;;;6.01;76.47;99057.00;5030467;28;20041;-60
2022/02/25 07:53:34;;;;;;;6.53;6.23;;;;;;;6.02;74.31;99069.75;5032469;28;20049;-56
2022/02/25 07:55:59;;;;;;;6.00;5.60;;;;;;;6.06;72.89;99071.47;5034386;28;20038;-57
2022/02/25 07:58:24;;;;;;;6.47;6.07;;;;;;;6.02;72.48;99085.00;5033403;28;20033;-57
2022/02/25 08:00:50;;;;;;;2.07;1.97;;;;;;;5.79;73.49;99078.88;5030085;28;20860;-58
2022/02/25 08:03:16;;;;;;;2.87;2.67;;;;;;;5.93;73.39;99059.50;5033824;28;20045;-57
2022/02/25 08:05:41;;;;;;;1.57;1.47;;;;;;;5.68;73.50;99083.03;5035382;28;20041;-58
2022/02/25 08:08:07;;;;;;;1.67;1.20;;;;;;;5.53;73.58;99071.91;5035283;28;20761;-58
2022/02/25 08:10:34;;;;;;;1.67;1.57;;;;;;;5.55;73.85;99071.91;5032846;28;20054;-58
2022/02/25 08:13:01;;;;;;;1.73;1.30;;;;;;;5.52;75.69;99088.00;5035151;28;20039;-59
2022/02/25 08:15:27;;;;;;;2.83;1.60;;;;;;;5.42;74.86;99076.06;5037033;28;20063;-60
2022/02/25 08:17:53;;;;;;;1.37;1.27;;;;;;;5.31;75.59;99072.53;5035693;28;20046;-58
2022/02/25 08:20:19;;;;;;;1.20;1.13;;;;;;;5.42;75.89;99063.34;5036092;28;20042;-57
2022/02/25 08:22:44;;;;;;;1.87;1.13;;;;;;;5.37;74.28;99075.16;5036072;28;20086;-57
2022/02/25 08:25:10;;;;;;;1.83;1.17;;;;;;;5.38;75.49;99074.31;5038850;28;20844;-60
2022/02/25 08:27:36;;;;;;;1.37;1.20;;;;;;;5.51;74.35;99063.41;5035733;28;20052;-60
2022/02/25 08:30:14;;;;;;;1.53;1.10;;;;;;;5.57;73.21;99079.53;5031819;28;20045;-60
2022/02/25 08:32:44;;;;;;;1.10;1.00;;;;;;;5.69;71.07;99094.91;5034638;28;20151;-57
2022/02/25 08:35:09;;;;;;;2.23;1.03;;;;;;;5.69;69.39;99097.44;5035641;28;20152;-59
2022/02/25 08:37:39;;;;;;;1.73;1.53;;;;;;;5.66;69.77;99092.34;5030885;28;20558;-56
2022/02/25 08:40:05;;;;;;;2.00;1.20;;;;;;;5.50;71.74;99101.53;5030501;28;20623;-58
2022/02/25 08:42:32;;;;;;;1.30;1.20;;;;;;;5.39;72.50;99111.59;5036262;28;20034;-59
2022/02/25 08:44:58;;;;;;;2.87;1.77;;;;;;;5.44;72.63;99119.28;5035259;28;20426;-56
2022/02/25 08:47:23;;;;;;;2.03;1.73;;;;;;;5.33;72.43;99093.75;5032855;28;20044;-58
2022/02/25 08:49:49;;;;;;;0.87;0.87;;;;;;;5.25;73.02;99113.19;5035923;28;20215;-59
2022/02/25 08:52:14;;;;;;;1.97;1.80;;;;;;;5.26;73.44;99108.94;5036924;28;20087;-57
2022/02/25 08:54:39;;;;;;;1.30;1.17;;;;;;;5.30;72.34;99114.09;5035925;28;20037;-55
2022/02/25 08:57:05;;;;;;;4.27;1.40;;;;;;;5.26;71.77;99083.53;5034837;28;20521;-54
2022/02/25 08:59:31;;;;;;;3.57;1.07;;;;;;;5.40;70.85;99092.13;5034733;28;20045;-56
2022/02/25 09:01:57;;;;;;;1.00;1.00;;;;;;;5.47;71.26;99101.53;5035965;28;20052;-59
2022/02/25 09:04:23;;;;;;;0.80;0.80;;;;;;;5.48;70.25;99085.41;5034582;28;20390;-58
2022/02/25 09:06:48;;;;;;;0.80;0.80;;;;;;;5.53;66.96;99101.56;5035213;28;20102;-55
2022/02/25 09:09:14;;;;;;;1.13;1.03;;;;;;;5.54;64.41;99108.34;5036279;28;20038;-55
2022/02/25 09:11:39;;;;;;;0.53;0.53;;;;;;;5.52;65.13;99093.06;5035760;28;20434;-59
2022/02/25 09:14:05;;;;;;;0.70;0.70;;;;;;;5.59;65.30;99114.34;5036533;28;20044;-55
2022/02/25 09:16:30;;;;;;;2.20;1.30;;;;;;;5.62;64.96;99090.59;5033396;28;20056;-59
2022/02/25 09:18:55;;;;;;;1.13;1.07;;;;;;;5.61;63.53;99097.38;5034853;28;20037;-59
2022/02/25 09:21:21;;;;;;;0.90;0.90;;;;;;;5.64;62.44;99110.16;5036551;28;20040;-55
2022/02/25 09:23:47;;;;;;;2.73;1.20;;;;;;;5.69;62.86;99097.44;5034682;28;20372;-57
2022/02/25 09:26:12;;;;;;;0.90;0.90;;;;;;;5.68;63.45;99091.53;5032555;28;20041;-59
2022/02/25 09:28:38;;;;;;;1.33;0.80;;;;;;;5.60;63.49;99054.97;5035773;28;20037;-57
2022/02/25 09:31:03;;;;;;;1.83;1.00;;;;;;;5.63;64.23;99094.88;5035896;28;20069;-59
2022/02/25 09:33:29;;;;;;;0.80;0.80;;;;;;;5.60;62.90;99070.25;5036095;28;20064;-56
2022/02/25 09:35:54;;;;;;;1.47;0.70;;;;;;;5.58;63.35;99066.84;5033265;28;20472;-59
2022/02/25 09:38:20;;;;;;;1.40;1.30;;;;;;;5.48;65.64;99055.75;5033381;28;20042;-58
2022/02/25 09:40:45;;;;;;;1.13;1.10;;;;;;;5.49;66.16;99037.13;5035776;28;20553;-57
2022/02/25 09:43:11;;;;;;;1.43;1.33;;;;;;;5.43;67.02;99026.06;5033870;28;20041;-57
2022/02/25 09:45:37;;;;;;;1.80;1.30;;;;;;;5.38;64.95;99038.72;5032667;28;20041;-60
2022/02/25 09:48:03;;;;;;;0.80;0.80;;;;;;;5.32;64.93;99059.00;5033460;28;20065;-51
2022/02/25 09:50:28;;;;;;;1.27;1.17;;;;;;;5.44;64.63;99045.53;5036912;28;20037;-58
2022/02/25 09:52:54;;;;;;;0.80;0.80;;;;;;;5.48;63.59;99063.38;5033194;28;20048;-58
2022/02/25 09:55:19;;;;;;;0.73;0.73;;;;;;;5.56;61.87;99088.03;5032372;28;20549;-59
2022/02/25 09:57:45;;;;;;;1.50;1.17;;;;;;;5.64;60.64;99111.84;5033500;28;20064;-59
2022/02/25 10:00:11;;;;;;;2.00;1.23;;;;;;;5.58;60.18;99091.44;5034797;28;20049;-58
2022/02/25 10:02:39;;;;;;;1.23;1.13;;;;;;;5.52;60.98;99115.97;5032618;28;20121;-59
2022/02/25 10:05:09;;;;;;;2.23;1.20;;;;;;;5.51;59.75;99116.81;5033712;28;20075;-57
2022/02/25 10:07:37;;;;;;;0.70;0.70;;;;;;;5.51;58.68;99151.56;5034342;28;20171;-62
2022/02/25 10:10:03;;;;;;;2.20;1.03;;;;;;;5.47;56.63;99115.06;5033983;28;21080;-56
2022/02/25 10:12:30;;;;;;;0.80;0.80;;;;;;;5.46;56.47;99109.97;5032410;28;20446;-59
2022/02/25 10:14:55;;;;;;;1.00;0.90;;;;;;;5.50;56.26;99102.41;5032344;28;20064;-56
2022/02/25 10:17:23;;;;;;;0.90;0.90;;;;;;;5.51;55.42;99114.28;5035295;28;20490;-59
2022/02/25 10:19:54;;;;;;;0.73;0.73;;;;;;;5.46;55.90;99127.78;5035638;28;20111;-60
2022/02/25 10:22:21;;;;;;;1.17;1.03;;;;;;;5.38;56.56;99114.16;5031387;28;20041;-56
2022/02/25 10:24:54;;;;;;;1.87;0.90;;;;;;;5.41;56.51;99111.63;5032069;28;20041;-58
2022/02/25 10:27:31;;;;;;;0.80;0.67;;;;;;;5.45;55.70;99109.13;5034395;28;20034;-58
2022/02/25 10:30:08;;;;;;;1.20;0.97;;;;;;;5.57;55.04;99140.56;5032481;28;20046;-58
2022/02/25 10:32:51;;;;;;;1.40;1.10;;;;;;;5.62;53.97;99103.31;5031329;28;20041;-59
2022/02/25 10:35:20;;;;;;;0.90;0.90;;;;;;;5.70;55.03;99116.94;5031606;28;20100;-57
2022/02/25 10:37:59;;;;;;;0.87;0.80;;;;;;;5.67;54.91;99122.88;5034373;28;20142;-60
2022/02/25 10:40:26;;;;;;;0.80;0.80;;;;;;;5.66;54.98;99131.34;5032541;28;20051;-59
2022/02/25 10:42:52;;;;;;;0.80;0.80;;;;;;;5.65;56.23;99133.88;5031585;28;20069;-57
2022/02/25 10:45:28;;;;;;;4.23;1.17;;;;;;;5.62;56.05;99129.63;5033543;28;20259;-58
2022/02/25 10:47:58;;;;;;;4.93;1.17;;;;;;;5.54;55.86;99100.72;5033001;28;20045;-58
2022/02/25 10:50:26;;;;;;;0.80;0.80;;;;;;;5.59;56.58;99129.59;5032574;28;20068;-61
2022/02/25 10:52:53;;;;;;;2.73;1.63;;;;;;;5.56;56.29;99141.44;5032998;28;20046;-59
2022/02/25 10:55:24;;;;;;;1.00;1.00;;;;;;;5.51;56.84;99110.88;5033186;28;20043;-58
2022/02/25 10:57:55;;;;;;;1.03;0.73;;;;;;;5.52;56.93;99136.31;5032209;28;20555;-59
2022/02/25 11:00:21;;;;;;;1.40;1.00;;;;;;;5.41;56.45;99157.38;5031125;28;20563;-59
2022/02/25 11:02:48;;;;;;;0.90;0.90;;;;;;;5.44;56.22;99120.13;5030686;28;20036;-59
2022/02/25 11:05:18;;;;;;;0.70;0.70;;;;;;;5.50;54.86;99191.41;5034228;28;20057;-60
2022/02/25 11:07:46;;;;;;;1.47;0.80;;;;;;;5.35;55.04;99135.28;5033371;28;20860;-58
2022/02/25 11:10:17;;;;;;;2.90;1.23;;;;;;;5.32;55.09;99139.50;5030955;28;20050;-56
2022/02/25 11:12:45;;;;;;;0.83;0.83;;;;;;;5.27;55.35;99147.06;5033531;28;20049;-59
2022/02/25 11:15:13;;;;;;;0.90;0.90;;;;;;;5.38;53.66;99119.22;5032282;28;20030;-59
2022/02/25 11:17:41;;;;;;;2.00;0.70;;;;;;;5.51;53.63;99123.59;5032488;28;20084;-60
2022/02/25 11:20:08;;;;;;;0.77;0.77;;;;;;;5.66;53.28;99138.97;5030113;28;20051;-59
2022/02/25 11:22:39;;;;;;;0.90;0.90;;;;;;;5.63;52.40;99140.66;5032735;28;20079;-60
2022/02/25 11:25:07;;;;;;;1.13;0.80;;;;;;;5.71;52.76;99123.75;5032081;28;20044;-59
2022/02/25 11:27:33;;;;;;;1.70;1.00;;;;;;;5.79;53.10;99133.16;5030750;28;20703;-57
2022/02/25 11:30:04;;;;;;;1.37;1.07;;;;;;;5.85;52.65;99133.22;5029864;28;20057;-58
2022/02/25 11:32:35;;;;;;;0.80;0.80;;;;;;;5.70;52.88;99129.66;5031544;28;20037;-60
2022/02/25 11:35:11;;;;;;;0.80;0.80;;;;;;;5.77;53.15;99145.00;5032183;28;20095;-59